createdAt,value
2019-05-10T00:00:28.932Z,2.17
2019-05-10T00:03:17.223Z,2.45
2019-05-10T00:06:08.101Z,2.30
2019-05-10T00:08:47.415Z,2.90
2019-05-10T00:11:40.680Z,2.60
2019-05-10T00:14:29.790Z,2.10
2019-05-10T00:17:01.750Z,2.25
2019-05-10T00:19:32.819Z,2.40
2019-05-10T00:22:05.172Z,2.05
2019-05-10T00:24:35.628Z,2.40
2019-05-10T00:27:06.148Z,2.37
2019-05-10T00:29:36.535Z,2.20
2019-05-10T00:32:07.449Z,2.33
2019-05-10T00:34:38.211Z,2.20
2019-05-10T00:37:08.810Z,2.37
2019-05-10T00:39:39.282Z,2.15
2019-05-10T00:42:09.696Z,2.17
2019-05-10T00:44:40.298Z,2.20
2019-05-10T00:47:11.063Z,2.20
2019-05-10T00:49:41.568Z,2.35
2019-05-10T00:52:11.977Z,2.25
2019-05-10T00:54:42.482Z,2.92
2019-05-10T00:57:12.963Z,2.20
2019-05-10T00:59:43.411Z,2.27
2019-05-10T01:02:14.344Z,2.12
2019-05-10T01:04:44.779Z,2.60
2019-05-10T01:07:15.350Z,2.05
2019-05-10T01:09:45.793Z,2.20
2019-05-10T01:12:16.355Z,1.87
2019-05-10T01:14:46.765Z,2.02
2019-05-10T01:17:17.649Z,2.33
2019-05-10T01:19:48.459Z,2.12
2019-05-10T01:22:19.348Z,2.15
2019-05-10T01:24:49.802Z,2.00
2019-05-10T01:27:20.500Z,2.35
2019-05-10T01:29:51.252Z,2.25
2019-05-10T01:32:22.017Z,2.25
2019-05-10T01:34:52.446Z,2.47
2019-05-10T01:37:22.823Z,2.22
2019-05-10T01:39:55.242Z,1.80
2019-05-10T01:42:25.158Z,2.17
2019-05-10T01:44:56.219Z,2.45
2019-05-10T01:47:26.715Z,2.05
2019-05-10T01:49:57.646Z,2.02
2019-05-10T01:52:28.309Z,2.45
2019-05-10T01:54:59.075Z,2.00
2019-05-10T01:57:29.849Z,2.20
2019-05-10T02:00:02.420Z,1.87
2019-05-10T02:02:33.027Z,2.22
2019-05-10T02:05:03.767Z,2.00
2019-05-10T02:07:34.299Z,1.95
2019-05-10T02:10:06.152Z,2.00
2019-05-10T02:12:36.570Z,1.90
2019-05-10T02:15:10.620Z,2.27
2019-05-10T02:17:41.480Z,1.87
2019-05-10T02:20:12.070Z,1.80
2019-05-10T02:22:42.785Z,2.00
2019-05-10T02:25:13.582Z,2.33
2019-05-10T02:27:43.933Z,2.30
2019-05-10T02:30:15.103Z,2.08
2019-05-10T02:32:45.825Z,2.12
2019-05-10T02:35:16.606Z,2.05
2019-05-10T02:37:47.028Z,2.00
2019-05-10T02:40:17.984Z,1.85
2019-05-10T02:42:48.602Z,2.00
2019-05-10T02:45:19.787Z,2.17
2019-05-10T02:47:50.213Z,1.80
2019-05-10T02:50:21.454Z,2.02
2019-05-10T02:52:52.204Z,1.87
2019-05-10T02:55:24.106Z,1.85
2019-05-10T02:57:55.644Z,1.67
2019-05-10T03:00:27.009Z,1.80
2019-05-10T03:02:57.631Z,2.10
2019-05-10T03:05:30.853Z,2.15
2019-05-10T03:08:02.559Z,1.87
2019-05-10T03:10:35.385Z,2.08
2019-05-10T03:13:06.265Z,1.65
2019-05-10T03:15:40.300Z,1.65
2019-05-10T03:18:10.707Z,1.90
2019-05-10T03:20:42.001Z,1.90
2019-05-10T03:23:12.539Z,1.72
2019-05-10T03:25:42.971Z,1.75
2019-05-10T03:28:13.755Z,1.77
2019-05-10T03:30:44.571Z,2.10
2019-05-10T03:33:15.084Z,1.70
2019-05-10T03:35:45.963Z,2.15
2019-05-10T03:38:16.747Z,1.70
2019-05-10T03:40:47.517Z,1.80
2019-05-10T03:43:18.082Z,1.67
2019-05-10T03:45:48.592Z,1.70
2019-05-10T03:48:18.961Z,1.75
2019-05-10T03:50:49.545Z,1.92
2019-05-10T03:53:20.690Z,1.72
2019-05-10T03:55:51.092Z,1.80
2019-05-10T03:58:21.891Z,1.90
2019-05-10T04:00:52.314Z,1.82
2019-05-10T04:03:22.695Z,1.77
2019-05-10T04:05:53.704Z,1.67
2019-05-10T04:08:24.221Z,1.90
2019-05-10T04:10:54.657Z,1.72
2019-05-10T04:13:25.067Z,2.00
2019-05-10T04:15:56.204Z,1.98
2019-05-10T04:18:27.063Z,1.70
2019-05-10T04:20:57.598Z,2.02
2019-05-10T04:23:28.458Z,1.82
2019-05-10T04:25:59.275Z,1.90
2019-05-10T04:28:29.695Z,1.67
2019-05-10T04:31:00.129Z,2.20
2019-05-10T04:33:30.903Z,1.75
2019-05-10T04:36:01.375Z,2.08
2019-05-10T04:38:32.186Z,1.77
2019-05-10T04:41:03.001Z,1.77
2019-05-10T04:43:33.783Z,1.98
2019-05-10T04:46:04.198Z,1.85
2019-05-10T04:48:34.586Z,1.72
2019-05-10T04:51:05.000Z,1.70
2019-05-10T04:53:35.678Z,1.70
2019-05-10T04:56:06.874Z,1.77
2019-05-10T04:58:37.607Z,1.98
2019-05-10T05:01:08.418Z,1.80
2019-05-10T05:03:39.353Z,1.75
2019-05-10T05:06:09.997Z,1.92
2019-05-10T05:08:40.796Z,2.17
2019-05-10T05:11:11.606Z,1.80
2019-05-10T05:13:42.345Z,1.80
2019-05-10T05:16:13.367Z,1.90
2019-05-10T05:18:44.014Z,1.70
2019-05-10T05:21:14.422Z,2.02
2019-05-10T05:23:45.208Z,1.92
2019-05-10T05:26:15.602Z,1.87
2019-05-10T05:28:46.322Z,1.90
2019-05-10T05:31:17.093Z,2.00
2019-05-10T05:33:47.481Z,1.67
2019-05-10T05:36:17.888Z,1.90
2019-05-10T05:38:49.610Z,1.90
2019-05-10T05:41:20.079Z,1.92
2019-05-10T05:43:50.874Z,2.00
2019-05-10T05:46:21.362Z,1.77
2019-05-10T05:48:52.249Z,1.72
2019-05-10T05:51:23.142Z,1.70
2019-05-10T05:53:53.931Z,1.60
2019-05-10T05:56:24.938Z,1.75
2019-05-10T05:58:55.954Z,1.52
2019-05-10T06:01:29.563Z,1.80
2019-05-10T06:04:00.161Z,2.10
2019-05-10T06:06:30.774Z,1.70
2019-05-10T06:09:01.673Z,1.60
2019-05-10T06:11:35.943Z,1.70
2019-05-10T06:14:10.863Z,2.00
2019-05-10T06:16:37.255Z,1.82
2019-05-10T06:19:07.953Z,1.62
2019-05-10T06:21:38.402Z,1.65
2019-05-10T06:24:13.234Z,1.85
2019-05-10T06:26:41.322Z,1.92
2019-05-10T06:29:17.352Z,1.77
2019-05-10T06:31:44.010Z,1.70
2019-05-10T06:34:15.907Z,1.42
2019-05-10T06:36:46.766Z,1.70
2019-05-10T06:39:17.237Z,1.70
2019-05-10T06:41:50.140Z,1.82
2019-05-10T06:44:24.780Z,1.72
2019-05-10T06:46:52.213Z,1.65
2019-05-10T06:49:23.251Z,1.60
2019-05-10T06:51:53.732Z,1.80
2019-05-10T06:54:24.654Z,1.60
2019-05-10T06:56:55.075Z,1.70
2019-05-10T06:59:26.352Z,1.47
2019-05-10T07:01:57.435Z,1.90
2019-05-10T07:04:27.820Z,1.70
2019-05-10T07:06:58.453Z,1.90
2019-05-10T07:09:29.139Z,3.72
2019-05-10T07:12:00.099Z,2.60
2019-05-10T07:14:30.918Z,3.62
2019-05-10T07:17:02.571Z,2.02
2019-05-10T07:19:34.807Z,3.65
2019-05-10T07:22:05.381Z,2.17
2019-05-10T07:24:35.761Z,2.42
2019-05-10T07:27:06.168Z,2.58
2019-05-10T07:29:43.220Z,3.30
2019-05-10T07:32:08.422Z,2.83
2019-05-10T07:34:38.813Z,2.20
2019-05-10T07:37:09.952Z,1.98
2019-05-10T07:39:40.395Z,2.33
2019-05-10T07:42:10.807Z,2.08
2019-05-10T07:44:41.546Z,2.30
2019-05-10T07:47:13.116Z,2.10
2019-05-10T07:49:43.713Z,2.10
2019-05-10T07:52:14.317Z,2.20
2019-05-10T07:54:47.603Z,1.92
2019-05-10T07:57:18.612Z,2.30
2019-05-10T07:59:51.096Z,2.20
2019-05-10T08:02:20.832Z,2.20
2019-05-10T08:04:53.669Z,2.12
2019-05-10T08:07:23.657Z,2.25
2019-05-10T08:09:54.355Z,3.05
2019-05-10T08:12:25.091Z,2.10
2019-05-10T08:14:55.820Z,2.10
2019-05-10T08:17:28.175Z,2.10
2019-05-10T08:19:58.235Z,2.27
2019-05-10T08:22:32.875Z,1.92
2019-05-10T08:25:02.280Z,1.87
2019-05-10T08:27:32.831Z,1.90
2019-05-10T08:30:20.220Z,2.00
2019-05-10T08:32:35.246Z,1.70
2019-05-10T08:35:16.303Z,1.70
2019-05-10T08:37:43.040Z,2.85
2019-05-10T08:40:12.987Z,1.77
2019-05-10T08:42:48.170Z,1.92
2019-05-10T08:45:15.635Z,1.92
2019-05-10T08:47:46.136Z,1.87
2019-05-10T08:50:42.303Z,1.95
2019-05-10T08:52:49.299Z,2.08
2019-05-10T08:55:19.668Z,1.90
2019-05-10T08:57:52.340Z,2.72
2019-05-10T09:00:41.451Z,1.70
2019-05-10T09:02:55.253Z,1.82
2019-05-10T09:05:28.770Z,1.70
2019-05-10T09:07:58.634Z,2.20
2019-05-10T09:10:29.081Z,1.85
2019-05-10T09:12:59.558Z,1.85
2019-05-10T09:15:30.095Z,1.90
2019-05-10T09:18:04.127Z,2.83
2019-05-10T09:20:33.162Z,2.00
2019-05-10T09:23:08.730Z,1.80
2019-05-10T09:25:36.376Z,2.10
2019-05-10T09:28:11.674Z,1.70
2019-05-10T09:30:54.132Z,1.70
2019-05-10T09:33:14.226Z,1.80
2019-05-10T09:35:51.531Z,1.70
2019-05-10T09:38:15.503Z,1.70
2019-05-10T09:40:51.110Z,1.80
2019-05-10T09:43:21.102Z,1.87
2019-05-10T09:45:52.857Z,2.00
2019-05-10T09:48:22.798Z,1.90
2019-05-10T09:50:56.269Z,1.65
2019-05-10T09:53:27.499Z,1.75
2019-05-10T09:56:02.497Z,1.77
2019-05-10T09:58:30.093Z,2.02
2019-05-10T10:01:13.863Z,1.77
2019-05-10T10:03:39.798Z,1.82
2019-05-10T10:06:07.599Z,1.75
2019-05-10T10:08:38.447Z,1.92
2019-05-10T10:11:15.064Z,1.70
2019-05-10T10:13:44.097Z,1.70
2019-05-10T10:16:14.869Z,1.95
2019-05-10T10:18:47.682Z,1.45
2019-05-10T10:21:18.906Z,1.92
2019-05-10T10:23:49.919Z,1.95
2019-05-10T10:26:22.268Z,1.95
2019-05-10T10:28:55.180Z,1.80
2019-05-10T10:31:30.317Z,1.90
2019-05-10T10:33:59.637Z,1.80
2019-05-10T10:36:28.734Z,1.70
2019-05-10T10:38:59.663Z,1.82
2019-05-10T10:41:31.697Z,1.82
2019-05-10T10:44:03.350Z,1.70
2019-05-10T10:49:37.648Z,1.65
2019-05-10T10:52:11.228Z,1.80
2019-05-10T10:54:40.087Z,1.75
2019-05-10T10:57:38.081Z,1.72
2019-05-10T11:00:12.860Z,1.70
2019-05-10T11:02:46.775Z,1.72
2019-05-10T11:05:15.459Z,1.57
2019-05-10T11:07:47.760Z,1.85
2019-05-10T11:10:22.312Z,2.02
2019-05-10T11:12:56.286Z,1.65
2019-05-10T11:15:28.218Z,1.70
2019-05-10T11:17:57.246Z,1.50
2019-05-10T11:20:27.652Z,1.62
2019-05-10T11:22:58.049Z,1.62
2019-05-10T11:25:28.971Z,1.75
2019-05-10T11:28:01.789Z,1.50
2019-05-10T11:30:32.450Z,1.60
2019-05-10T11:33:03.549Z,1.65
2019-05-10T11:35:34.662Z,1.60
2019-05-10T11:38:06.549Z,1.70
2019-05-10T11:40:37.402Z,1.55
2019-05-10T11:43:08.171Z,1.70
2019-05-10T11:45:41.954Z,1.77
2019-05-10T11:48:10.917Z,1.82
2019-05-10T11:50:41.737Z,1.70
2019-05-10T11:53:13.209Z,1.70
2019-05-10T11:55:44.458Z,1.82
2019-05-10T11:58:15.132Z,1.52
2019-05-10T12:00:45.882Z,1.67
2019-05-10T12:03:19.830Z,1.72
2019-05-10T12:05:53.194Z,1.87
2019-05-10T12:08:22.378Z,1.62
2019-05-10T12:11:07.123Z,1.87
2019-05-10T12:13:25.743Z,1.50
2019-05-10T12:15:56.124Z,1.55
2019-05-10T12:18:27.184Z,1.77
2019-05-10T12:21:09.044Z,1.72
2019-05-10T12:23:31.622Z,1.45
2019-05-10T12:27:13.118Z,1.67
2019-05-10T12:28:35.846Z,1.50
2019-05-10T12:31:07.575Z,1.47
2019-05-10T12:33:42.104Z,1.62
2019-05-10T12:36:22.086Z,1.67
2019-05-10T12:38:43.120Z,1.70
2019-05-10T12:41:13.528Z,1.45
2019-05-10T12:43:47.859Z,1.50
2019-05-10T12:46:16.814Z,1.70
2019-05-10T12:48:47.200Z,1.50
2019-05-10T12:51:18.176Z,1.40
2019-05-10T12:53:51.877Z,1.50
2019-05-10T12:56:21.131Z,1.62
2019-05-10T12:58:57.287Z,1.42
2019-05-10T13:01:25.701Z,1.50
2019-05-10T13:03:55.729Z,1.30
2019-05-10T13:06:26.743Z,1.50
2019-05-10T13:08:57.409Z,1.55
2019-05-10T13:11:28.198Z,1.45
2019-05-10T13:14:01.036Z,1.60
2019-05-10T13:16:31.106Z,1.50
2019-05-10T13:19:01.501Z,1.55
2019-05-10T13:21:32.279Z,1.60
2019-05-10T13:24:02.673Z,1.80
2019-05-10T13:26:33.429Z,1.55
2019-05-10T13:29:08.136Z,1.70
2019-05-10T13:31:42.137Z,1.70
2019-05-10T13:34:08.370Z,1.55
2019-05-10T13:36:39.079Z,1.50
2019-05-10T13:39:09.930Z,1.57
2019-05-10T13:41:40.589Z,1.62
2019-05-10T13:44:11.372Z,1.30
2019-05-10T13:46:41.789Z,1.40
2019-05-10T13:49:12.560Z,1.40
2019-05-10T13:51:43.322Z,1.60
2019-05-10T13:54:36.325Z,1.80
2019-05-10T13:57:05.092Z,1.65
2019-05-10T13:59:36.135Z,1.67
2019-05-10T14:02:06.873Z,1.60
2019-05-10T14:04:38.579Z,1.40
2019-05-10T14:07:09.159Z,1.30
2019-05-10T14:09:39.885Z,1.62
2019-05-10T14:12:10.637Z,1.50
2019-05-10T14:14:41.551Z,1.20
2019-05-10T14:17:11.966Z,1.47
2019-05-10T14:19:42.707Z,1.50
2019-05-10T14:22:13.282Z,1.40
2019-05-10T14:24:46.768Z,1.40
2019-05-10T14:27:15.930Z,1.37
2019-05-10T14:29:46.783Z,1.37
2019-05-10T14:32:17.229Z,1.57
2019-05-10T14:34:48.964Z,1.42
2019-05-10T14:37:21.491Z,1.50
2019-05-10T14:39:51.827Z,1.30
2019-05-10T14:42:24.171Z,1.35
2019-05-10T14:44:54.380Z,1.42
2019-05-10T14:47:24.852Z,1.30
2019-05-10T14:49:55.371Z,1.30
2019-05-10T14:52:25.917Z,1.37
2019-05-10T14:54:57.050Z,1.42
2019-05-10T14:57:27.554Z,1.20
2019-05-10T14:59:57.999Z,1.40
2019-05-10T15:02:28.926Z,1.45
2019-05-10T15:05:01.437Z,1.60
2019-05-10T15:07:31.375Z,1.45
2019-05-10T15:10:02.526Z,1.40
2019-05-10T15:12:33.264Z,1.40
2019-05-10T15:15:03.920Z,1.30
2019-05-10T15:17:34.308Z,1.30
2019-05-10T15:20:05.848Z,1.40
2019-05-10T15:22:36.504Z,1.60
2019-05-10T15:25:07.956Z,1.40
2019-05-10T15:27:38.358Z,1.30
2019-05-10T15:30:09.736Z,1.17
2019-05-10T15:32:40.168Z,1.40
2019-05-10T15:35:11.343Z,1.42
2019-05-10T15:37:46.504Z,1.47
2019-05-10T15:40:14.346Z,1.30
2019-05-10T15:42:46.127Z,1.65
2019-05-10T15:45:19.351Z,1.50
2019-05-10T15:47:51.753Z,1.52
2019-05-10T15:50:21.878Z,1.40
2019-05-10T15:52:52.351Z,1.50
2019-05-10T15:55:27.264Z,1.60
2019-05-10T15:57:57.772Z,1.30
2019-05-10T16:00:37.383Z,1.40
2019-05-10T16:02:58.849Z,1.27
2019-05-10T16:05:42.564Z,1.57
2019-05-10T16:08:04.439Z,1.20
2019-05-10T16:10:39.428Z,1.67
2019-05-10T16:13:06.796Z,1.65
2019-05-10T16:15:37.219Z,2.12
2019-05-10T16:18:07.843Z,2.52
2019-05-10T16:20:39.036Z,2.30
2019-05-10T16:23:11.216Z,2.30
2019-05-10T16:25:45.431Z,2.12
2019-05-10T16:28:15.422Z,2.37
2019-05-10T16:30:47.043Z,2.30
2019-05-10T16:33:18.184Z,3.05
2019-05-10T16:35:51.892Z,2.95
2019-05-10T16:38:20.751Z,2.58
2019-05-10T16:40:57.975Z,2.87
2019-05-10T16:43:24.822Z,2.90
2019-05-10T16:45:54.906Z,2.80
2019-05-10T16:48:28.282Z,3.15
2019-05-10T16:50:57.996Z,3.67
2019-05-10T16:53:31.344Z,3.47
2019-05-10T16:56:00.440Z,3.12
2019-05-10T16:58:30.897Z,2.98
2019-05-10T17:01:01.501Z,3.87
2019-05-10T17:03:31.926Z,3.30
2019-05-10T17:06:05.661Z,3.30
2019-05-10T17:08:36.588Z,3.42
2019-05-10T17:11:10.086Z,3.22
2019-05-10T17:13:43.090Z,3.83
2019-05-10T17:16:17.124Z,3.30
2019-05-10T17:18:50.064Z,3.47
2019-05-10T17:21:17.632Z,3.58
2019-05-10T17:23:48.641Z,3.70
2019-05-10T17:26:19.184Z,3.50
2019-05-10T17:28:50.261Z,3.30
2019-05-10T17:31:20.721Z,3.20
2019-05-10T17:33:51.162Z,3.22
2019-05-10T17:36:21.633Z,3.27
2019-05-10T17:38:54.113Z,3.00
2019-05-10T17:41:27.018Z,3.00
2019-05-10T17:43:57.570Z,3.20
2019-05-10T17:46:28.026Z,3.17
2019-05-10T17:48:59.131Z,3.33
2019-05-10T17:51:29.611Z,3.80
2019-05-10T17:54:01.477Z,3.50
2019-05-10T17:56:32.946Z,3.25
2019-05-10T17:59:05.798Z,3.40
2019-05-10T18:01:35.938Z,3.55
2019-05-10T18:04:06.395Z,3.62
2019-05-10T18:06:37.478Z,3.20
2019-05-10T18:09:08.260Z,3.42
2019-05-10T18:11:42.726Z,3.75
2019-05-10T18:14:12.584Z,3.60
2019-05-10T18:16:48.030Z,3.40
2019-05-10T18:19:19.240Z,3.27
2019-05-10T18:21:49.691Z,3.20
2019-05-10T18:24:20.123Z,3.37
2019-05-10T18:26:50.650Z,2.83
2019-05-10T18:29:21.270Z,3.40
2019-05-10T18:31:56.333Z,3.50
2019-05-10T18:34:26.309Z,3.22
2019-05-10T18:36:57.280Z,3.20
2019-05-10T18:39:27.751Z,3.77
2019-05-10T18:41:58.152Z,3.60
2019-05-10T18:44:29.473Z,3.30
2019-05-10T18:46:59.859Z,3.37
2019-05-10T18:49:30.360Z,3.45
2019-05-10T18:52:04.528Z,3.25
2019-05-10T18:54:33.068Z,3.58
2019-05-10T18:57:09.033Z,3.20
2019-05-10T18:59:39.724Z,3.27
2019-05-10T19:02:11.737Z,3.00
2019-05-10T19:04:39.887Z,3.42
2019-05-10T19:07:10.589Z,3.45
2019-05-10T19:09:41.888Z,3.30
2019-05-10T19:12:18.422Z,3.45
2019-05-10T19:14:44.444Z,3.27
2019-05-10T19:17:14.828Z,3.27
2019-05-10T19:19:46.652Z,3.60
2019-05-10T19:22:17.079Z,3.00
2019-05-10T19:24:47.707Z,3.60
2019-05-10T19:27:18.131Z,3.17
2019-05-10T19:29:48.725Z,3.22
2019-05-10T19:32:20.249Z,3.27
2019-05-10T19:34:57.139Z,3.15
2019-05-10T19:37:30.167Z,3.37
2019-05-10T19:39:55.046Z,3.67
2019-05-10T19:42:25.497Z,3.42
2019-05-10T19:44:55.968Z,5.33
2019-05-10T19:47:26.510Z,3.70
2019-05-10T19:49:56.910Z,3.65
2019-05-10T19:52:27.834Z,3.75
2019-05-10T19:54:58.533Z,3.90
2019-05-10T19:57:31.103Z,4.15
2019-05-10T20:00:01.650Z,4.28
2019-05-10T20:02:32.091Z,4.17
2019-05-10T20:05:02.640Z,4.33
2019-05-10T20:07:45.427Z,3.40
2019-05-10T20:10:07.572Z,3.90
2019-05-10T20:12:37.069Z,4.30
2019-05-10T20:15:10.330Z,4.10
2019-05-10T20:17:41.058Z,3.83
2019-05-10T20:20:11.719Z,4.60
2019-05-10T20:22:42.348Z,3.42
2019-05-10T20:25:12.853Z,3.83
2019-05-10T20:27:43.488Z,5.70
2019-05-10T20:30:14.212Z,7.03
2019-05-10T20:32:44.847Z,4.25
2019-05-10T20:35:15.451Z,3.70
2019-05-10T20:38:00.687Z,4.17
2019-05-10T20:40:19.426Z,3.95
2019-05-10T20:42:49.877Z,3.40
2019-05-10T20:45:20.293Z,3.20
2019-05-10T20:47:50.704Z,3.40
2019-05-10T20:50:21.455Z,3.30
2019-05-10T20:52:52.043Z,3.40
2019-05-10T20:55:22.457Z,3.58
2019-05-10T20:57:56.034Z,3.25
2019-05-10T21:00:26.417Z,5.05
2019-05-10T21:02:56.831Z,3.05
2019-05-10T21:05:27.619Z,3.35
2019-05-10T21:07:58.971Z,3.45
2019-05-10T21:10:29.470Z,3.30
2019-05-10T21:12:59.911Z,3.55
2019-05-10T21:15:31.049Z,3.65
2019-05-10T21:18:01.509Z,3.37
2019-05-10T21:20:32.363Z,3.45
2019-05-10T21:23:02.794Z,2.83
2019-05-10T21:25:33.203Z,5.53
2019-05-10T21:28:03.601Z,4.60
2019-05-10T21:30:34.183Z,3.17
2019-05-10T21:33:04.599Z,4.22
2019-05-10T21:35:35.090Z,3.30
2019-05-10T21:38:05.519Z,3.30
2019-05-10T21:40:35.994Z,3.40
2019-05-10T21:43:06.401Z,3.27
2019-05-10T21:45:36.794Z,3.05
2019-05-10T21:48:07.200Z,6.20
2019-05-10T21:50:37.638Z,3.50
2019-05-10T21:53:08.657Z,3.05
2019-05-10T21:55:39.052Z,2.83
2019-05-10T21:58:10.138Z,3.47
2019-05-10T22:00:41.920Z,3.45
2019-05-10T22:03:12.639Z,3.00
2019-05-10T22:05:43.763Z,3.30
2019-05-10T22:08:14.177Z,3.35
2019-05-10T22:10:44.584Z,3.20
2019-05-10T22:13:15.194Z,3.22
2019-05-10T22:15:48.314Z,2.95
2019-05-10T22:18:18.932Z,2.98
2019-05-10T22:20:49.380Z,2.98
2019-05-10T22:23:19.773Z,3.35
2019-05-10T22:25:50.204Z,3.30
2019-05-10T22:28:20.641Z,3.02
2019-05-10T22:30:51.074Z,2.77
2019-05-10T22:33:24.955Z,2.98
2019-05-10T22:35:58.982Z,5.15
2019-05-10T22:38:29.701Z,2.90
2019-05-10T22:41:01.478Z,2.80
2019-05-10T22:43:31.933Z,3.25
2019-05-10T22:46:03.471Z,2.98
2019-05-10T22:48:33.895Z,3.17
2019-05-10T22:51:04.295Z,3.87
2019-05-10T22:53:34.742Z,2.55
2019-05-10T22:56:05.662Z,3.37
2019-05-10T22:58:36.087Z,3.55
2019-05-10T23:01:06.515Z,3.42
2019-05-10T23:03:37.026Z,3.70
2019-05-10T23:06:07.501Z,2.77
2019-05-10T23:08:37.978Z,3.05
2019-05-10T23:11:08.798Z,3.20
2019-05-10T23:13:39.970Z,3.50
2019-05-10T23:16:10.737Z,3.42
2019-05-10T23:18:41.220Z,2.60
2019-05-10T23:21:12.071Z,3.12
2019-05-10T23:23:42.572Z,3.40
2019-05-10T23:26:13.553Z,3.20
2019-05-10T23:28:44.137Z,3.20
2019-05-10T23:31:14.546Z,3.25
2019-05-10T23:33:45.008Z,3.22
2019-05-10T23:36:16.286Z,3.30
2019-05-10T23:38:47.147Z,2.70
2019-05-10T23:41:17.603Z,3.33
2019-05-10T23:43:48.498Z,3.37
2019-05-10T23:46:18.932Z,3.17
2019-05-10T23:48:49.423Z,2.83
2019-05-10T23:51:19.842Z,3.05
2019-05-10T23:53:50.278Z,3.00
2019-05-10T23:56:20.695Z,3.15
2019-05-10T23:58:51.127Z,3.10
